createdAt,value
2022-11-05T00:02:09.262Z,10.53
2022-11-05T00:04:57.938Z,9.78
2022-11-05T00:07:52.575Z,10.35
2022-11-05T00:10:26.066Z,10.50
2022-11-05T00:13:18.453Z,10.15
2022-11-05T00:16:06.697Z,10.45
2022-11-05T00:18:37.189Z,10.03
2022-11-05T00:21:09.301Z,9.75
2022-11-05T00:23:57.913Z,10.23
2022-11-05T00:26:28.289Z,9.15
2022-11-05T00:28:58.650Z,8.88
2022-11-05T00:31:29.007Z,8.95
2022-11-05T00:33:59.523Z,8.13
2022-11-05T00:36:29.906Z,8.90
2022-11-05T00:39:00.393Z,8.98
2022-11-05T00:41:30.693Z,8.70
2022-11-05T00:44:18.849Z,8.23
2022-11-05T00:46:49.227Z,7.40
2022-11-05T00:49:31.729Z,7.65
2022-11-05T00:52:20.352Z,7.33
2022-11-05T00:54:50.777Z,7.47
2022-11-05T00:57:21.175Z,7.95
2022-11-05T00:59:51.566Z,7.20
2022-11-05T01:02:22.142Z,7.60
2022-11-05T01:04:52.669Z,7.95
2022-11-05T01:07:23.057Z,8.05
2022-11-05T01:09:53.484Z,7.80
2022-11-05T01:12:23.861Z,7.65
2022-11-05T01:14:54.251Z,8.25
2022-11-05T01:17:26.405Z,7.80
2022-11-05T01:19:57.008Z,7.47
2022-11-05T01:22:27.457Z,7.92
2022-11-05T01:24:57.768Z,8.33
2022-11-05T01:27:28.237Z,8.30
2022-11-05T01:29:58.732Z,8.00
2022-11-05T01:32:29.163Z,7.92
2022-11-05T01:34:59.545Z,7.97
2022-11-05T01:37:30.004Z,7.70
2022-11-05T01:40:00.462Z,8.38
2022-11-05T01:42:32.951Z,7.85
2022-11-05T01:45:21.504Z,8.25
2022-11-05T01:47:58.079Z,8.25
2022-11-05T01:50:31.901Z,8.53
2022-11-05T01:53:07.002Z,8.60
2022-11-05T01:55:40.567Z,8.73
2022-11-05T01:58:14.022Z,8.80
2022-11-05T02:00:44.794Z,9.15
2022-11-05T02:03:17.120Z,8.83
2022-11-05T02:05:50.408Z,8.95
2022-11-05T02:08:23.838Z,9.15
2022-11-05T02:10:54.605Z,9.00
2022-11-05T02:13:25.006Z,9.08
2022-11-05T02:16:01.419Z,9.43
2022-11-05T02:18:46.394Z,9.13
2022-11-05T02:21:22.520Z,8.95
2022-11-05T02:23:55.975Z,9.70
2022-11-05T02:26:35.334Z,9.78
2022-11-05T02:29:14.520Z,10.10
2022-11-05T02:31:56.936Z,9.78
2022-11-05T02:34:39.647Z,9.78
2022-11-05T02:37:27.726Z,10.05
2022-11-05T02:40:03.915Z,10.15
2022-11-05T02:43:06.260Z,10.25
2022-11-05T02:45:54.546Z,10.18
2022-11-05T02:48:45.971Z,10.15
2022-11-05T02:51:25.432Z,10.10
2022-11-05T02:54:07.891Z,9.60
2022-11-05T02:56:41.068Z,9.33
2022-11-05T02:59:11.404Z,10.23
2022-11-05T03:01:44.757Z,9.80
2022-11-05T03:04:18.554Z,9.33
2022-11-05T03:07:10.174Z,10.30
2022-11-05T03:09:49.813Z,9.20
2022-11-05T03:12:41.097Z,9.33
2022-11-05T03:15:35.368Z,9.53
2022-11-05T03:18:28.124Z,9.43
2022-11-05T03:21:19.524Z,9.08
2022-11-05T03:23:58.938Z,9.63
2022-11-05T03:26:38.474Z,9.45
2022-11-05T03:29:11.917Z,9.13
2022-11-05T03:31:43.687Z,9.05
2022-11-05T03:34:16.532Z,8.90
2022-11-05T03:36:50.011Z,8.35
2022-11-05T03:39:23.429Z,8.75
2022-11-05T03:41:56.257Z,9.20
2022-11-05T03:44:32.611Z,8.83
2022-11-05T03:47:06.092Z,10.05
2022-11-05T03:49:42.385Z,8.83
2022-11-05T03:52:19.390Z,8.95
2022-11-05T03:54:51.135Z,8.88
2022-11-05T03:57:30.304Z,8.93
2022-11-05T04:00:00.839Z,9.98
2022-11-05T04:02:32.512Z,8.70
2022-11-05T04:05:03.144Z,8.73
2022-11-05T04:07:52.512Z,8.70
2022-11-05T04:10:42.430Z,8.03
2022-11-05T04:13:25.482Z,8.70
2022-11-05T04:16:15.661Z,8.28
2022-11-05T04:18:46.224Z,8.30
2022-11-05T04:21:34.469Z,8.25
2022-11-05T04:24:09.982Z,7.87
2022-11-05T04:26:47.451Z,8.10
2022-11-05T04:29:36.141Z,7.70
2022-11-05T04:32:07.494Z,7.72
2022-11-05T04:34:37.875Z,8.08
2022-11-05T04:37:08.285Z,8.10
2022-11-05T04:39:38.748Z,7.35
2022-11-05T04:42:09.084Z,7.25
2022-11-05T04:44:39.507Z,8.03
2022-11-05T04:47:09.919Z,8.35
2022-11-05T04:49:40.566Z,7.55
2022-11-05T04:52:10.897Z,8.10
2022-11-05T04:54:44.158Z,7.07
2022-11-05T04:57:14.541Z,7.33
2022-11-05T04:59:44.933Z,7.95
2022-11-05T05:02:15.365Z,7.70
2022-11-05T05:04:46.333Z,7.30
2022-11-05T05:07:17.067Z,7.00
2022-11-05T05:09:47.561Z,7.30
2022-11-05T05:12:18.015Z,7.10
2022-11-05T05:14:53.447Z,7.78
2022-11-05T05:17:23.803Z,6.87
2022-11-05T05:20:12.112Z,7.05
2022-11-05T05:22:42.483Z,7.63
2022-11-05T05:25:15.854Z,6.80
2022-11-05T05:27:48.304Z,7.43
2022-11-05T05:30:18.982Z,7.27
2022-11-05T05:32:50.938Z,6.80
2022-11-05T05:35:21.323Z,7.30
2022-11-05T05:37:57.210Z,7.60
2022-11-05T05:40:27.617Z,6.90
2022-11-05T05:42:58.011Z,7.20
2022-11-05T05:45:28.503Z,6.80
2022-11-05T05:48:00.035Z,7.67
2022-11-05T05:50:30.648Z,7.17
2022-11-05T05:53:01.044Z,6.90
2022-11-05T05:55:31.444Z,7.35
2022-11-05T05:58:01.848Z,6.57
2022-11-05T06:00:33.768Z,7.27
2022-11-05T06:03:05.827Z,6.80
2022-11-05T06:05:36.248Z,7.15
2022-11-05T06:08:06.874Z,6.80
2022-11-05T06:10:37.445Z,7.00
2022-11-05T06:13:07.932Z,7.03
2022-11-05T06:15:38.532Z,6.57
2022-11-05T06:18:09.068Z,7.07
2022-11-05T06:20:39.667Z,6.80
2022-11-05T06:23:10.466Z,6.80
2022-11-05T06:25:41.601Z,7.40
2022-11-05T06:28:12.044Z,7.10
2022-11-05T06:30:42.446Z,6.60
2022-11-05T06:33:13.033Z,7.20
2022-11-05T06:35:43.857Z,6.60
2022-11-05T06:38:14.298Z,6.57
2022-11-05T06:40:44.622Z,6.83
2022-11-05T06:43:15.117Z,6.70
2022-11-05T06:45:45.511Z,6.83
2022-11-05T06:48:15.975Z,7.05
2022-11-05T06:50:47.232Z,7.50
2022-11-05T06:53:18.142Z,6.80
2022-11-05T06:55:48.753Z,6.50
2022-11-05T06:58:19.153Z,6.83
2022-11-05T07:00:50.160Z,6.55
2022-11-05T07:03:20.555Z,7.10
2022-11-05T07:05:51.782Z,6.97
2022-11-05T07:08:22.143Z,8.53
2022-11-05T07:10:52.701Z,6.57
2022-11-05T07:13:23.138Z,6.78
2022-11-05T07:15:53.728Z,6.12
2022-11-05T07:18:24.450Z,8.07
2022-11-05T07:20:54.851Z,6.50
2022-11-05T07:23:25.303Z,10.53
2022-11-05T07:25:55.699Z,6.80
2022-11-05T07:28:25.993Z,6.67
2022-11-05T07:30:56.301Z,6.08
2022-11-05T07:33:26.620Z,6.17
2022-11-05T07:35:59.935Z,5.60
2022-11-05T07:38:30.346Z,5.80
2022-11-05T07:41:01.002Z,6.50
2022-11-05T07:43:31.373Z,6.00
2022-11-05T07:46:01.796Z,5.97
2022-11-05T07:48:32.148Z,6.40
2022-11-05T07:51:02.553Z,25.47
2022-11-05T07:53:32.963Z,8.60
2022-11-05T07:56:03.362Z,6.67
2022-11-05T07:58:35.121Z,7.07
2022-11-05T08:01:07.298Z,6.40
2022-11-05T08:03:37.987Z,6.50
2022-11-05T08:06:08.434Z,6.10
2022-11-05T08:08:38.826Z,6.40
2022-11-05T08:11:12.035Z,6.70
2022-11-05T08:13:43.997Z,6.63
2022-11-05T08:16:15.454Z,7.50
2022-11-05T08:18:46.891Z,7.03
2022-11-05T08:21:17.337Z,6.70
2022-11-05T08:23:47.721Z,7.03
2022-11-05T08:26:19.480Z,7.13
2022-11-05T08:28:49.843Z,6.65
2022-11-05T08:31:20.211Z,6.90
2022-11-05T08:33:50.587Z,6.42
2022-11-05T08:36:20.960Z,6.33
2022-11-05T08:38:52.249Z,6.47
2022-11-05T08:41:22.578Z,6.12
2022-11-05T08:43:57.135Z,6.33
2022-11-05T08:46:27.525Z,6.42
2022-11-05T08:48:58.545Z,5.53
2022-11-05T08:51:29.092Z,5.75
2022-11-05T08:53:59.430Z,6.20
2022-11-05T08:56:29.898Z,5.90
2022-11-05T08:59:01.068Z,6.53
2022-11-05T09:01:31.559Z,6.03
2022-11-05T09:04:02.562Z,5.37
2022-11-05T09:06:33.099Z,4.85
2022-11-05T09:09:03.681Z,4.40
2022-11-05T09:12:05.290Z,4.33
2022-11-05T09:14:05.979Z,4.28
2022-11-05T09:16:36.977Z,4.35
2022-11-05T09:19:07.380Z,4.05
2022-11-05T09:21:37.810Z,4.05
2022-11-05T09:24:08.598Z,3.92
2022-11-05T09:26:38.963Z,4.30
2022-11-05T09:29:14.223Z,4.90
2022-11-05T09:31:42.320Z,4.37
2022-11-05T09:34:12.705Z,3.70
2022-11-05T09:36:43.081Z,4.78
2022-11-05T09:39:14.880Z,4.40
2022-11-05T09:41:46.396Z,4.55
2022-11-05T09:44:23.130Z,3.80
2022-11-05T09:46:56.700Z,3.58
2022-11-05T09:49:34.345Z,3.70
2022-11-05T09:52:04.885Z,3.52
2022-11-05T09:54:35.308Z,4.83
2022-11-05T09:57:08.686Z,3.20
2022-11-05T09:59:45.122Z,3.33
2022-11-05T10:02:39.328Z,4.25
2022-11-05T10:05:12.136Z,4.58
2022-11-05T10:07:45.999Z,3.83
2022-11-05T10:10:25.162Z,4.97
2022-11-05T10:12:58.592Z,3.42
2022-11-05T10:15:39.010Z,3.45
2022-11-05T10:18:15.149Z,2.92
2022-11-05T10:20:46.207Z,3.50
2022-11-05T10:23:19.934Z,2.85
2022-11-05T10:25:53.369Z,3.65
2022-11-05T10:28:26.739Z,3.10
2022-11-05T10:31:08.812Z,3.20
2022-11-05T10:33:45.067Z,2.33
2022-11-05T10:36:22.169Z,2.92
2022-11-05T10:38:54.306Z,2.40
2022-11-05T10:41:50.358Z,2.40
2022-11-05T10:44:33.081Z,3.10
2022-11-05T10:47:27.725Z,2.83
2022-11-05T10:50:02.985Z,2.80
2022-11-05T10:52:36.364Z,3.02
2022-11-05T10:55:09.856Z,2.50
2022-11-05T10:57:41.666Z,2.30
2022-11-05T11:00:22.160Z,2.40
2022-11-05T11:02:59.054Z,2.85
2022-11-05T11:05:35.703Z,2.83
2022-11-05T11:08:14.782Z,3.25
2022-11-05T11:11:00.441Z,2.75
2022-11-05T11:13:33.895Z,2.85
2022-11-05T11:16:22.589Z,2.20
2022-11-05T11:19:00.493Z,2.40
2022-11-05T11:21:33.200Z,2.50
2022-11-05T11:24:07.010Z,2.70
2022-11-05T11:26:40.606Z,3.00
2022-11-05T11:29:23.048Z,6.42
2022-11-05T11:31:58.822Z,2.70
2022-11-05T11:34:35.371Z,10.80
2022-11-05T11:37:16.681Z,20.90
2022-11-05T11:39:46.641Z,3.10
2022-11-05T11:42:23.009Z,2.83
2022-11-05T11:44:53.844Z,2.50
2022-11-05T11:47:24.613Z,10.98
2022-11-05T11:49:57.846Z,3.30
2022-11-05T11:52:37.301Z,2.52
2022-11-05T11:55:13.926Z,2.15
2022-11-05T11:57:50.219Z,2.08
2022-11-05T12:00:23.692Z,1.98
2022-11-05T12:03:09.132Z,2.65
2022-11-05T12:05:48.143Z,2.02
2022-11-05T12:08:36.835Z,2.15
2022-11-05T12:11:18.893Z,2.40
2022-11-05T12:14:12.343Z,2.00
2022-11-05T12:16:51.738Z,2.08
2022-11-05T12:19:34.341Z,1.90
2022-11-05T12:22:16.372Z,1.90
2022-11-05T12:25:12.669Z,1.90
2022-11-05T12:28:04.056Z,2.42
2022-11-05T12:30:37.677Z,2.05
2022-11-05T12:33:43.221Z,5.20
2022-11-05T12:36:18.336Z,1.92
2022-11-05T12:39:00.928Z,2.22
2022-11-05T12:41:37.054Z,3.90
2022-11-05T12:44:39.494Z,1.98
2022-11-05T12:47:28.022Z,1.92
2022-11-05T12:50:25.214Z,1.85
2022-11-05T12:52:58.653Z,2.00
2022-11-05T12:55:35.935Z,2.10
2022-11-05T12:58:15.522Z,2.10
2022-11-05T13:00:49.246Z,3.67
2022-11-05T13:03:39.301Z,2.25
2022-11-05T13:06:18.179Z,2.25
2022-11-05T13:08:54.575Z,2.02
2022-11-05T13:11:39.606Z,2.37
2022-11-05T13:14:19.031Z,2.00
2022-11-05T13:16:52.530Z,2.42
2022-11-05T13:19:35.077Z,2.98
2022-11-05T13:22:09.676Z,2.60
2022-11-05T13:24:51.966Z,2.42
2022-11-05T13:27:28.144Z,2.30
2022-11-05T13:30:04.309Z,2.30
2022-11-05T13:32:37.983Z,2.02
2022-11-05T13:35:11.405Z,2.27
2022-11-05T13:38:03.371Z,2.00
2022-11-05T13:41:06.993Z,2.50
2022-11-05T13:43:46.348Z,2.77
2022-11-05T13:46:53.665Z,2.02
2022-11-05T13:49:49.773Z,2.00
2022-11-05T13:52:45.581Z,2.47
2022-11-05T13:55:34.066Z,2.10
2022-11-05T13:58:37.500Z,2.30
2022-11-05T14:01:44.375Z,2.17
2022-11-05T14:04:26.823Z,2.58
2022-11-05T14:07:12.265Z,2.60
2022-11-05T14:09:45.083Z,2.35
2022-11-05T14:12:27.101Z,2.58
2022-11-05T14:15:09.557Z,2.25
2022-11-05T14:17:59.769Z,2.10
2022-11-05T14:20:36.184Z,3.33
2022-11-05T14:23:24.702Z,2.70
2022-11-05T14:26:14.967Z,2.20
2022-11-05T14:28:48.142Z,1.92
2022-11-05T14:31:31.388Z,1.98
2022-11-05T14:34:02.851Z,1.98
2022-11-05T14:36:36.252Z,2.00
2022-11-05T14:39:26.397Z,2.33
2022-11-05T14:42:09.019Z,2.20
2022-11-05T14:44:58.902Z,2.30
2022-11-05T14:47:32.549Z,2.90
2022-11-05T14:50:20.859Z,2.42
2022-11-05T14:52:56.968Z,2.90
2022-11-05T14:55:36.223Z,2.10
2022-11-05T14:58:28.363Z,2.80
2022-11-05T15:00:59.998Z,2.40
2022-11-05T15:03:39.759Z,2.58
2022-11-05T15:06:34.155Z,2.10
2022-11-05T15:09:16.196Z,2.80
2022-11-05T15:11:49.640Z,2.50
2022-11-05T15:14:25.953Z,2.42
2022-11-05T15:16:59.076Z,2.30
2022-11-05T15:19:36.911Z,2.15
2022-11-05T15:22:10.429Z,2.17
2022-11-05T15:24:43.114Z,2.25
2022-11-05T15:27:20.692Z,2.40
2022-11-05T15:29:51.063Z,2.65
2022-11-05T15:32:24.662Z,2.40
2022-11-05T15:34:56.720Z,2.62
2022-11-05T15:37:28.646Z,2.50
2022-11-05T15:39:59.101Z,2.67
2022-11-05T15:42:29.854Z,2.50
2022-11-05T15:45:01.155Z,2.80
2022-11-05T15:47:35.316Z,2.30
2022-11-05T15:50:15.299Z,3.00
2022-11-05T15:52:54.541Z,2.80
2022-11-05T15:55:26.551Z,2.80
2022-11-05T15:58:00.269Z,2.90
2022-11-05T16:00:33.139Z,3.08
2022-11-05T16:03:09.367Z,3.52
2022-11-05T16:05:44.407Z,3.50
2022-11-05T16:08:17.840Z,3.40
2022-11-05T16:10:51.836Z,3.60
2022-11-05T16:13:31.305Z,6.20
2022-11-05T16:16:05.032Z,3.70
2022-11-05T16:18:39.341Z,3.00
2022-11-05T16:21:15.580Z,3.35
2022-11-05T16:23:57.732Z,3.83
2022-11-05T16:27:01.924Z,3.80
2022-11-05T16:29:19.246Z,13.20
2022-11-05T16:31:51.378Z,5.10
2022-11-05T16:34:39.222Z,4.33
2022-11-05T16:37:14.955Z,4.10
2022-11-05T16:39:45.400Z,4.28
2022-11-05T16:42:36.728Z,4.30
2022-11-05T16:45:08.767Z,4.35
2022-11-05T16:47:39.252Z,4.25
2022-11-05T16:50:28.205Z,3.80
2022-11-05T16:52:58.624Z,3.58
2022-11-05T16:55:29.476Z,3.62
2022-11-05T16:58:00.098Z,3.80
2022-11-05T17:00:30.556Z,3.67
2022-11-05T17:03:01.025Z,3.70
2022-11-05T17:05:32.734Z,3.90
2022-11-05T17:08:03.500Z,3.90
2022-11-05T17:10:33.819Z,4.30
2022-11-05T17:13:04.123Z,5.35
2022-11-05T17:15:37.849Z,4.53
2022-11-05T17:18:08.221Z,4.83
2022-11-05T17:20:44.434Z,5.60
2022-11-05T17:23:17.480Z,5.20
2022-11-05T17:25:53.542Z,5.00
2022-11-05T17:28:24.446Z,5.47
2022-11-05T17:30:54.788Z,4.33
2022-11-05T17:33:25.215Z,4.07
2022-11-05T17:35:56.489Z,9.80
2022-11-05T17:38:27.911Z,4.17
2022-11-05T17:40:58.309Z,4.17
2022-11-05T17:43:28.601Z,4.12
2022-11-05T17:46:04.363Z,4.10
2022-11-05T17:48:31.040Z,3.87
2022-11-05T17:51:01.595Z,4.65
2022-11-05T17:53:32.343Z,4.37
2022-11-05T17:56:02.748Z,4.40
2022-11-05T17:58:34.923Z,4.33
2022-11-05T18:01:06.457Z,4.90
2022-11-05T18:03:36.880Z,4.78
2022-11-05T18:06:08.043Z,4.95
2022-11-05T18:08:38.432Z,4.92
2022-11-05T18:11:08.931Z,5.30
2022-11-05T18:13:39.393Z,5.80
2022-11-05T18:16:10.123Z,4.70
2022-11-05T18:18:40.448Z,5.10
2022-11-05T18:21:10.859Z,4.90
2022-11-05T18:23:42.013Z,4.97
2022-11-05T18:26:14.765Z,4.65
2022-11-05T18:28:45.504Z,6.85
2022-11-05T18:31:20.333Z,6.30
2022-11-05T18:33:51.446Z,7.83
2022-11-05T18:36:24.222Z,6.80
2022-11-05T18:38:55.053Z,7.15
2022-11-05T18:41:25.987Z,6.65
2022-11-05T18:44:01.544Z,5.40
2022-11-05T18:46:57.242Z,6.40
2022-11-05T18:49:05.705Z,6.30
2022-11-05T18:51:36.103Z,6.40
2022-11-05T18:54:07.234Z,6.30
2022-11-05T18:56:39.360Z,6.17
2022-11-05T18:59:35.107Z,7.28
2022-11-05T19:01:42.067Z,5.90
2022-11-05T19:04:13.378Z,5.92
2022-11-05T19:09:57.429Z,6.10
2022-11-05T19:12:27.826Z,6.70
2022-11-05T19:15:02.429Z,7.35
2022-11-05T19:17:33.632Z,6.55
2022-11-05T19:20:06.430Z,7.57
2022-11-05T19:22:36.843Z,7.87
2022-11-05T19:25:08.077Z,7.92
2022-11-05T19:27:38.682Z,8.70
2022-11-05T19:30:09.705Z,7.00
2022-11-05T19:32:40.053Z,7.00
2022-11-05T19:35:10.434Z,6.65
2022-11-05T19:37:40.902Z,6.30
2022-11-05T19:40:12.321Z,7.28
2022-11-05T19:42:42.776Z,6.70
2022-11-05T19:47:45.130Z,7.05
2022-11-05T19:50:15.514Z,6.90
2022-11-05T19:52:45.817Z,6.80
2022-11-05T19:55:16.366Z,7.53
2022-11-05T19:57:46.974Z,6.77
2022-11-05T20:00:18.065Z,6.72
2022-11-05T20:02:48.910Z,6.63
2022-11-05T20:05:19.310Z,8.08
2022-11-05T20:07:53.142Z,6.87
2022-11-05T20:10:21.903Z,6.60
2022-11-05T20:12:52.376Z,7.20
2022-11-05T20:15:22.679Z,6.72
2022-11-05T20:17:54.908Z,7.80
2022-11-05T20:20:25.219Z,7.17
2022-11-05T20:22:55.610Z,6.90
2022-11-05T20:25:26.048Z,8.33
2022-11-05T20:27:58.136Z,9.50
2022-11-05T20:30:28.535Z,8.20
2022-11-05T20:32:59.384Z,8.78
2022-11-05T20:35:30.634Z,8.45
2022-11-05T20:38:01.028Z,9.08
2022-11-05T20:40:31.319Z,8.77
2022-11-05T20:43:01.727Z,8.77
2022-11-05T20:45:32.270Z,8.73
2022-11-05T20:48:02.666Z,8.68
2022-11-05T20:50:33.761Z,9.35
2022-11-05T20:53:04.151Z,8.70
2022-11-05T20:55:35.964Z,8.28
2022-11-05T20:58:06.399Z,8.43
2022-11-05T21:00:36.798Z,8.70
2022-11-05T21:03:07.436Z,9.95
2022-11-05T21:05:37.799Z,10.23
2022-11-05T21:08:08.177Z,9.50
2022-11-05T21:10:38.474Z,9.23
2022-11-05T21:13:09.134Z,9.05
2022-11-05T21:15:39.667Z,9.38
2022-11-05T21:18:10.323Z,9.35
2022-11-05T21:20:41.553Z,9.48
2022-11-05T21:23:12.764Z,9.18
2022-11-05T21:25:44.214Z,7.95
2022-11-05T21:28:16.429Z,8.38
2022-11-05T21:30:50.754Z,7.90
2022-11-05T21:33:21.115Z,8.03
2022-11-05T21:35:51.500Z,7.87
2022-11-05T21:38:21.921Z,7.70
2022-11-05T21:40:52.550Z,7.17
2022-11-05T21:43:22.871Z,7.57
2022-11-05T21:45:53.179Z,7.90
2022-11-05T21:48:23.515Z,7.40
2022-11-05T21:51:11.583Z,7.13
2022-11-05T21:53:59.784Z,6.95
2022-11-05T21:56:48.623Z,7.20
2022-11-05T21:59:40.214Z,6.85
2022-11-05T22:02:13.318Z,6.67
2022-11-05T22:04:46.843Z,7.67
2022-11-05T22:07:19.872Z,7.30
2022-11-05T22:09:50.322Z,8.45
2022-11-05T22:12:21.212Z,8.98
2022-11-05T22:14:52.456Z,10.60
2022-11-05T22:17:23.089Z,12.65
2022-11-05T22:19:53.628Z,10.10
2022-11-05T22:22:24.036Z,10.17
2022-11-05T22:24:54.502Z,10.27
2022-11-05T22:27:24.882Z,9.80
2022-11-05T22:29:55.236Z,9.90
2022-11-05T22:32:25.621Z,9.00
2022-11-05T22:34:56.057Z,8.75
2022-11-05T22:37:26.467Z,6.87
2022-11-05T22:39:56.931Z,7.47
2022-11-05T22:42:27.554Z,6.75
2022-11-05T22:44:58.848Z,7.08
2022-11-05T22:47:29.272Z,6.90
2022-11-05T22:49:59.621Z,6.62
2022-11-05T22:52:30.089Z,6.40
2022-11-05T22:55:02.065Z,6.10
2022-11-05T22:57:32.431Z,6.42
2022-11-05T23:00:03.307Z,5.33
2022-11-05T23:02:33.888Z,5.70
2022-11-05T23:05:04.470Z,5.72
2022-11-05T23:07:52.395Z,6.57
2022-11-05T23:10:40.652Z,5.65
2022-11-05T23:13:11.016Z,5.63
2022-11-05T23:15:59.398Z,5.50
2022-11-05T23:18:47.579Z,5.30
2022-11-05T23:21:36.184Z,5.35
2022-11-05T23:24:07.013Z,5.67
2022-11-05T23:26:51.065Z,6.70
2022-11-05T23:29:26.691Z,5.93
2022-11-05T23:32:15.420Z,5.70
2022-11-05T23:34:45.841Z,6.50
2022-11-05T23:37:35.069Z,5.47
2022-11-05T23:40:09.000Z,5.87
2022-11-05T23:42:57.232Z,5.70
2022-11-05T23:45:46.631Z,5.58
2022-11-05T23:48:31.736Z,5.33
2022-11-05T23:51:08.049Z,5.27
2022-11-05T23:53:40.838Z,6.87
2022-11-05T23:56:16.157Z,6.20
2022-11-05T23:58:47.160Z,5.47
